sensor_id;sensor_type;location;lat;lon;timestamp;P1;durP1;ratioP1;P2;durP2;ratioP2
47958;SDS011;33718;50.910;-1.514;2023-09-30T00:01:33;7.50;;;2.05;;
47958;SDS011;33718;50.910;-1.514;2023-09-30T00:03:34;8.68;;;1.90;;
47958;SDS011;33718;50.910;-1.514;2023-09-30T00:05:42;9.40;;;1.63;;
47958;SDS011;33718;50.910;-1.514;2023-09-30T00:08:03;4.55;;;1.45;;
47958;SDS011;33718;50.910;-1.514;2023-09-30T00:10:05;7.43;;;1.98;;
47958;SDS011;33718;50.910;-1.514;2023-09-30T00:12:06;7.28;;;1.70;;
47958;SDS011;33718;50.910;-1.514;2023-09-30T00:14:27;5.53;;;1.88;;
47958;SDS011;33718;50.910;-1.514;2023-09-30T00:16:30;7.15;;;1.40;;
47958;SDS011;33718;50.910;-1.514;2023-09-30T00:18:32;5.95;;;1.85;;
47958;SDS011;33718;50.910;-1.514;2023-09-30T00:20:34;9.95;;;1.65;;
47958;SDS011;33718;50.910;-1.514;2023-09-30T00:22:41;9.02;;;1.55;;
47958;SDS011;33718;50.910;-1.514;2023-09-30T00:24:49;9.93;;;1.52;;
47958;SDS011;33718;50.910;-1.514;2023-09-30T00:26:56;11.55;;;1.95;;
47958;SDS011;33718;50.910;-1.514;2023-09-30T00:28:58;4.65;;;1.00;;
47958;SDS011;33718;50.910;-1.514;2023-09-30T00:31:00;9.00;;;1.50;;
47958;SDS011;33718;50.910;-1.514;2023-09-30T00:33:07;8.60;;;1.02;;
47958;SDS011;33718;50.910;-1.514;2023-09-30T00:35:20;5.25;;;1.70;;
47958;SDS011;33718;50.910;-1.514;2023-09-30T00:37:38;7.43;;;1.73;;
47958;SDS011;33718;50.910;-1.514;2023-09-30T00:39:50;7.63;;;1.67;;
47958;SDS011;33718;50.910;-1.514;2023-09-30T00:42:08;3.63;;;1.15;;
47958;SDS011;33718;50.910;-1.514;2023-09-30T00:44:21;5.88;;;1.30;;
47958;SDS011;33718;50.910;-1.514;2023-09-30T00:46:52;5.97;;;1.05;;
47958;SDS011;33718;50.910;-1.514;2023-09-30T00:49:24;6.75;;;1.48;;
47958;SDS011;33718;50.910;-1.514;2023-09-30T00:51:32;2.95;;;1.05;;
47958;SDS011;33718;50.910;-1.514;2023-09-30T00:53:44;4.72;;;1.63;;
47958;SDS011;33718;50.910;-1.514;2023-09-30T00:55:58;7.28;;;1.33;;
47958;SDS011;33718;50.910;-1.514;2023-09-30T00:58:17;6.07;;;1.38;;
47958;SDS011;33718;50.910;-1.514;2023-09-30T01:00:26;4.28;;;1.27;;
47958;SDS011;33718;50.910;-1.514;2023-09-30T01:02:39;7.22;;;1.45;;
47958;SDS011;33718;50.910;-1.514;2023-09-30T01:05:09;10.57;;;1.58;;
47958;SDS011;33718;50.910;-1.514;2023-09-30T01:07:17;4.10;;;1.02;;
47958;SDS011;33718;50.910;-1.514;2023-09-30T01:09:22;6.82;;;1.60;;
47958;SDS011;33718;50.910;-1.514;2023-09-30T01:11:28;6.35;;;2.38;;
47958;SDS011;33718;50.910;-1.514;2023-09-30T01:13:33;10.32;;;2.72;;
47958;SDS011;33718;50.910;-1.514;2023-09-30T01:15:36;4.43;;;1.90;;
47958;SDS011;33718;50.910;-1.514;2023-09-30T01:17:38;12.65;;;2.45;;
47958;SDS011;33718;50.910;-1.514;2023-09-30T01:19:45;7.88;;;1.70;;
47958;SDS011;33718;50.910;-1.514;2023-09-30T01:21:48;4.65;;;2.00;;
47958;SDS011;33718;50.910;-1.514;2023-09-30T01:23:56;8.75;;;2.17;;
47958;SDS011;33718;50.910;-1.514;2023-09-30T01:26:01;12.80;;;2.78;;
47958;SDS011;33718;50.910;-1.514;2023-09-30T01:28:07;12.52;;;1.90;;
47958;SDS011;33718;50.910;-1.514;2023-09-30T01:30:27;8.07;;;2.15;;
47958;SDS011;33718;50.910;-1.514;2023-09-30T01:32:47;8.23;;;1.80;;
47958;SDS011;33718;50.910;-1.514;2023-09-30T01:34:49;10.98;;;1.73;;
47958;SDS011;33718;50.910;-1.514;2023-09-30T01:36:51;6.07;;;1.63;;
47958;SDS011;33718;50.910;-1.514;2023-09-30T01:41:02;4.30;;;1.10;;
47958;SDS011;33718;50.910;-1.514;2023-09-30T01:43:06;5.55;;;1.15;;
47958;SDS011;33718;50.910;-1.514;2023-09-30T01:45:08;4.47;;;1.42;;
47958;SDS011;33718;50.910;-1.514;2023-09-30T01:47:15;5.20;;;1.58;;
47958;SDS011;33718;50.910;-1.514;2023-09-30T01:49:17;5.97;;;1.98;;
47958;SDS011;33718;50.910;-1.514;2023-09-30T01:51:25;4.28;;;1.20;;
47958;SDS011;33718;50.910;-1.514;2023-09-30T01:53:32;7.45;;;1.65;;
47958;SDS011;33718;50.910;-1.514;2023-09-30T01:55:34;6.93;;;1.63;;
47958;SDS011;33718;50.910;-1.514;2023-09-30T01:57:36;2.70;;;1.58;;
47958;SDS011;33718;50.910;-1.514;2023-09-30T01:59:37;6.25;;;1.55;;
47958;SDS011;33718;50.910;-1.514;2023-09-30T02:01:45;8.60;;;1.92;;
47958;SDS011;33718;50.910;-1.514;2023-09-30T02:03:50;5.45;;;1.25;;
47958;SDS011;33718;50.910;-1.514;2023-09-30T02:05:56;9.93;;;1.95;;
47958;SDS011;33718;50.910;-1.514;2023-09-30T02:08:04;5.93;;;1.67;;
47958;SDS011;33718;50.910;-1.514;2023-09-30T02:10:10;6.07;;;2.08;;
47958;SDS011;33718;50.910;-1.514;2023-09-30T02:12:11;4.85;;;1.73;;
47958;SDS011;33718;50.910;-1.514;2023-09-30T02:14:16;7.18;;;2.00;;
47958;SDS011;33718;50.910;-1.514;2023-09-30T02:16:18;4.00;;;1.90;;
47958;SDS011;33718;50.910;-1.514;2023-09-30T02:18:22;5.45;;;1.65;;
47958;SDS011;33718;50.910;-1.514;2023-09-30T02:20:25;11.25;;;1.90;;
47958;SDS011;33718;50.910;-1.514;2023-09-30T02:22:30;5.88;;;1.65;;
47958;SDS011;33718;50.910;-1.514;2023-09-30T02:24:31;10.50;;;3.47;;
47958;SDS011;33718;50.910;-1.514;2023-09-30T02:26:33;7.25;;;2.88;;
47958;SDS011;33718;50.910;-1.514;2023-09-30T02:28:40;9.38;;;1.98;;
47958;SDS011;33718;50.910;-1.514;2023-09-30T02:30:47;9.05;;;3.10;;
47958;SDS011;33718;50.910;-1.514;2023-09-30T02:32:53;7.97;;;2.28;;
47958;SDS011;33718;50.910;-1.514;2023-09-30T02:34:57;4.63;;;1.67;;
47958;SDS011;33718;50.910;-1.514;2023-09-30T02:36:59;6.68;;;2.08;;
47958;SDS011;33718;50.910;-1.514;2023-09-30T02:39:01;7.32;;;2.30;;
47958;SDS011;33718;50.910;-1.514;2023-09-30T02:41:05;10.90;;;2.53;;
47958;SDS011;33718;50.910;-1.514;2023-09-30T02:43:13;9.23;;;2.85;;
47958;SDS011;33718;50.910;-1.514;2023-09-30T02:45:20;7.22;;;2.10;;
47958;SDS011;33718;50.910;-1.514;2023-09-30T02:47:25;10.15;;;2.70;;
47958;SDS011;33718;50.910;-1.514;2023-09-30T02:49:37;9.82;;;3.10;;
47958;SDS011;33718;50.910;-1.514;2023-09-30T02:51:38;8.88;;;1.85;;
47958;SDS011;33718;50.910;-1.514;2023-09-30T02:53:43;11.27;;;2.65;;
47958;SDS011;33718;50.910;-1.514;2023-09-30T02:56:03;11.00;;;3.53;;
47958;SDS011;33718;50.910;-1.514;2023-09-30T02:58:11;10.57;;;3.55;;
47958;SDS011;33718;50.910;-1.514;2023-09-30T03:00:16;10.52;;;4.97;;
47958;SDS011;33718;50.910;-1.514;2023-09-30T03:02:24;11.60;;;3.83;;
47958;SDS011;33718;50.910;-1.514;2023-09-30T03:04:26;12.32;;;4.47;;
47958;SDS011;33718;50.910;-1.514;2023-09-30T03:06:35;14.13;;;4.10;;
47958;SDS011;33718;50.910;-1.514;2023-09-30T03:08:43;13.93;;;5.47;;
47958;SDS011;33718;50.910;-1.514;2023-09-30T03:10:44;16.80;;;4.90;;
47958;SDS011;33718;50.910;-1.514;2023-09-30T03:12:47;10.45;;;4.22;;
47958;SDS011;33718;50.910;-1.514;2023-09-30T03:14:55;15.60;;;4.47;;
47958;SDS011;33718;50.910;-1.514;2023-09-30T03:16:57;10.52;;;3.42;;
47958;SDS011;33718;50.910;-1.514;2023-09-30T03:18:59;18.58;;;4.38;;
47958;SDS011;33718;50.910;-1.514;2023-09-30T03:21:01;12.48;;;4.28;;
47958;SDS011;33718;50.910;-1.514;2023-09-30T03:23:03;9.93;;;3.15;;
47958;SDS011;33718;50.910;-1.514;2023-09-30T03:25:11;12.52;;;3.25;;
47958;SDS011;33718;50.910;-1.514;2023-09-30T03:27:19;9.95;;;3.22;;
47958;SDS011;33718;50.910;-1.514;2023-09-30T03:29:21;6.53;;;2.67;;
47958;SDS011;33718;50.910;-1.514;2023-09-30T03:33:34;7.85;;;1.70;;
47958;SDS011;33718;50.910;-1.514;2023-09-30T03:35:38;9.80;;;1.15;;
47958;SDS011;33718;50.910;-1.514;2023-09-30T03:37:41;4.82;;;1.85;;
47958;SDS011;33718;50.910;-1.514;2023-09-30T03:39:45;11.30;;;3.28;;
47958;SDS011;33718;50.910;-1.514;2023-09-30T03:42:04;6.40;;;1.33;;
47958;SDS011;33718;50.910;-1.514;2023-09-30T03:44:22;9.43;;;1.80;;
47958;SDS011;33718;50.910;-1.514;2023-09-30T03:46:40;7.35;;;3.35;;
47958;SDS011;33718;50.910;-1.514;2023-09-30T03:48:55;4.20;;;1.48;;
47958;SDS011;33718;50.910;-1.514;2023-09-30T03:51:11;9.27;;;2.45;;
47958;SDS011;33718;50.910;-1.514;2023-09-30T03:53:25;4.75;;;1.85;;
47958;SDS011;33718;50.910;-1.514;2023-09-30T03:55:35;7.20;;;2.08;;
47958;SDS011;33718;50.910;-1.514;2023-09-30T03:57:59;6.63;;;1.67;;
47958;SDS011;33718;50.910;-1.514;2023-09-30T04:00:06;4.63;;;1.33;;
47958;SDS011;33718;50.910;-1.514;2023-09-30T04:02:25;10.73;;;1.75;;
47958;SDS011;33718;50.910;-1.514;2023-09-30T04:04:52;3.78;;;1.17;;
47958;SDS011;33718;50.910;-1.514;2023-09-30T04:07:02;6.40;;;1.38;;
47958;SDS011;33718;50.910;-1.514;2023-09-30T04:09:21;7.03;;;1.80;;
47958;SDS011;33718;50.910;-1.514;2023-09-30T04:11:39;5.15;;;1.50;;
47958;SDS011;33718;50.910;-1.514;2023-09-30T04:13:52;5.60;;;1.73;;
47958;SDS011;33718;50.910;-1.514;2023-09-30T04:15:59;6.47;;;1.70;;
47958;SDS011;33718;50.910;-1.514;2023-09-30T04:18:07;7.72;;;1.65;;
47958;SDS011;33718;50.910;-1.514;2023-09-30T04:20:12;6.85;;;2.28;;
47958;SDS011;33718;50.910;-1.514;2023-09-30T04:22:18;8.73;;;1.90;;
47958;SDS011;33718;50.910;-1.514;2023-09-30T04:24:20;6.43;;;1.70;;
47958;SDS011;33718;50.910;-1.514;2023-09-30T04:26:22;4.03;;;1.92;;
47958;SDS011;33718;50.910;-1.514;2023-09-30T04:28:26;7.00;;;2.22;;
47958;SDS011;33718;50.910;-1.514;2023-09-30T04:30:34;7.43;;;1.95;;
47958;SDS011;33718;50.910;-1.514;2023-09-30T04:32:36;7.90;;;1.58;;
47958;SDS011;33718;50.910;-1.514;2023-09-30T04:34:41;9.50;;;2.00;;
47958;SDS011;33718;50.910;-1.514;2023-09-30T04:37:05;6.60;;;1.43;;
47958;SDS011;33718;50.910;-1.514;2023-09-30T04:39:12;8.23;;;1.98;;
47958;SDS011;33718;50.910;-1.514;2023-09-30T04:41:14;9.18;;;2.05;;
47958;SDS011;33718;50.910;-1.514;2023-09-30T04:43:23;8.68;;;1.50;;
47958;SDS011;33718;50.910;-1.514;2023-09-30T04:45:25;7.78;;;1.80;;
47958;SDS011;33718;50.910;-1.514;2023-09-30T04:47:27;7.32;;;1.63;;
47958;SDS011;33718;50.910;-1.514;2023-09-30T04:49:34;11.15;;;1.80;;
47958;SDS011;33718;50.910;-1.514;2023-09-30T04:51:37;7.30;;;1.77;;
47958;SDS011;33718;50.910;-1.514;2023-09-30T04:53:41;5.13;;;1.33;;
47958;SDS011;33718;50.910;-1.514;2023-09-30T04:55:43;4.85;;;1.35;;
47958;SDS011;33718;50.910;-1.514;2023-09-30T04:57:47;4.15;;;1.52;;
47958;SDS011;33718;50.910;-1.514;2023-09-30T05:00:09;7.00;;;1.50;;
47958;SDS011;33718;50.910;-1.514;2023-09-30T05:02:12;6.00;;;1.55;;
47958;SDS011;33718;50.910;-1.514;2023-09-30T05:04:19;6.18;;;1.50;;
47958;SDS011;33718;50.910;-1.514;2023-09-30T05:06:23;8.05;;;1.63;;
47958;SDS011;33718;50.910;-1.514;2023-09-30T05:08:44;6.88;;;1.40;;
47958;SDS011;33718;50.910;-1.514;2023-09-30T05:10:51;7.00;;;1.65;;
47958;SDS011;33718;50.910;-1.514;2023-09-30T05:12:57;7.68;;;1.13;;
47958;SDS011;33718;50.910;-1.514;2023-09-30T05:14:59;5.38;;;1.20;;
47958;SDS011;33718;50.910;-1.514;2023-09-30T05:17:00;5.28;;;1.27;;
47958;SDS011;33718;50.910;-1.514;2023-09-30T05:19:02;6.90;;;1.48;;
47958;SDS011;33718;50.910;-1.514;2023-09-30T05:21:12;5.85;;;1.75;;
47958;SDS011;33718;50.910;-1.514;2023-09-30T05:23:13;7.35;;;1.55;;
47958;SDS011;33718;50.910;-1.514;2023-09-30T05:25:18;5.82;;;1.40;;
47958;SDS011;33718;50.910;-1.514;2023-09-30T05:27:27;5.38;;;1.52;;
47958;SDS011;33718;50.910;-1.514;2023-09-30T05:29:47;11.63;;;2.13;;
47958;SDS011;33718;50.910;-1.514;2023-09-30T05:31:49;6.45;;;1.50;;
47958;SDS011;33718;50.910;-1.514;2023-09-30T05:33:50;8.35;;;1.60;;
47958;SDS011;33718;50.910;-1.514;2023-09-30T05:35:55;3.75;;;1.10;;
47958;SDS011;33718;50.910;-1.514;2023-09-30T05:37:56;8.23;;;1.90;;
47958;SDS011;33718;50.910;-1.514;2023-09-30T05:39:58;2.80;;;1.30;;
47958;SDS011;33718;50.910;-1.514;2023-09-30T05:42:02;8.98;;;1.95;;
47958;SDS011;33718;50.910;-1.514;2023-09-30T05:44:07;5.93;;;1.38;;
47958;SDS011;33718;50.910;-1.514;2023-09-30T05:46:09;5.22;;;1.55;;
47958;SDS011;33718;50.910;-1.514;2023-09-30T05:48:11;3.42;;;1.45;;
47958;SDS011;33718;50.910;-1.514;2023-09-30T05:50:16;3.83;;;1.85;;
47958;SDS011;33718;50.910;-1.514;2023-09-30T05:52:17;9.82;;;2.08;;
47958;SDS011;33718;50.910;-1.514;2023-09-30T05:54:21;10.73;;;1.70;;
47958;SDS011;33718;50.910;-1.514;2023-09-30T05:56:27;4.18;;;1.00;;
47958;SDS011;33718;50.910;-1.514;2023-09-30T05:58:28;4.53;;;1.50;;
47958;SDS011;33718;50.910;-1.514;2023-09-30T06:00:36;5.88;;;1.15;;
47958;SDS011;33718;50.910;-1.514;2023-09-30T06:02:43;1.77;;;1.05;;
47958;SDS011;33718;50.910;-1.514;2023-09-30T06:04:45;3.40;;;1.50;;
47958;SDS011;33718;50.910;-1.514;2023-09-30T06:07:06;2.53;;;1.30;;
47958;SDS011;33718;50.910;-1.514;2023-09-30T06:09:15;8.23;;;1.52;;
47958;SDS011;33718;50.910;-1.514;2023-09-30T06:11:17;3.97;;;1.30;;
47958;SDS011;33718;50.910;-1.514;2023-09-30T06:13:37;3.00;;;1.00;;
47958;SDS011;33718;50.910;-1.514;2023-09-30T06:15:40;3.08;;;1.40;;
47958;SDS011;33718;50.910;-1.514;2023-09-30T06:17:49;2.35;;;0.80;;
47958;SDS011;33718;50.910;-1.514;2023-09-30T06:19:56;7.18;;;1.38;;
47958;SDS011;33718;50.910;-1.514;2023-09-30T06:22:04;2.65;;;1.38;;
47958;SDS011;33718;50.910;-1.514;2023-09-30T06:24:06;1.48;;;0.73;;
47958;SDS011;33718;50.910;-1.514;2023-09-30T06:26:07;7.88;;;1.08;;
47958;SDS011;33718;50.910;-1.514;2023-09-30T06:28:12;6.78;;;1.10;;
47958;SDS011;33718;50.910;-1.514;2023-09-30T06:30:15;4.10;;;1.25;;
47958;SDS011;33718;50.910;-1.514;2023-09-30T06:32:23;3.40;;;1.10;;
47958;SDS011;33718;50.910;-1.514;2023-09-30T06:34:30;4.32;;;1.45;;
47958;SDS011;33718;50.910;-1.514;2023-09-30T06:36:38;6.75;;;1.50;;
47958;SDS011;33718;50.910;-1.514;2023-09-30T06:38:45;3.20;;;1.35;;
47958;SDS011;33718;50.910;-1.514;2023-09-30T06:40:55;8.75;;;1.35;;
47958;SDS011;33718;50.910;-1.514;2023-09-30T06:42:58;6.20;;;1.23;;
47958;SDS011;33718;50.910;-1.514;2023-09-30T06:45:10;6.45;;;1.30;;
47958;SDS011;33718;50.910;-1.514;2023-09-30T06:47:27;3.75;;;1.33;;
47958;SDS011;33718;50.910;-1.514;2023-09-30T06:49:55;2.85;;;0.95;;
47958;SDS011;33718;50.910;-1.514;2023-09-30T06:52:31;4.10;;;0.95;;
47958;SDS011;33718;50.910;-1.514;2023-09-30T06:54:47;3.58;;;1.00;;
47958;SDS011;33718;50.910;-1.514;2023-09-30T06:57:07;8.30;;;1.73;;
47958;SDS011;33718;50.910;-1.514;2023-09-30T06:59:37;1.50;;;0.70;;
47958;SDS011;33718;50.910;-1.514;2023-09-30T07:01:52;3.33;;;0.82;;
47958;SDS011;33718;50.910;-1.514;2023-09-30T07:04:12;7.50;;;1.40;;
47958;SDS011;33718;50.910;-1.514;2023-09-30T07:06:27;3.40;;;1.17;;
47958;SDS011;33718;50.910;-1.514;2023-09-30T07:08:43;5.85;;;1.70;;
47958;SDS011;33718;50.910;-1.514;2023-09-30T07:10:57;6.40;;;1.40;;
47958;SDS011;33718;50.910;-1.514;2023-09-30T07:15:23;5.57;;;1.00;;
47958;SDS011;33718;50.910;-1.514;2023-09-30T07:17:42;3.70;;;1.33;;
47958;SDS011;33718;50.910;-1.514;2023-09-30T07:20:02;4.63;;;0.93;;
47958;SDS011;33718;50.910;-1.514;2023-09-30T07:22:20;3.88;;;1.13;;
47958;SDS011;33718;50.910;-1.514;2023-09-30T07:24:36;4.38;;;1.42;;
47958;SDS011;33718;50.910;-1.514;2023-09-30T07:26:40;4.22;;;1.00;;
47958;SDS011;33718;50.910;-1.514;2023-09-30T07:28:44;3.47;;;1.60;;
47958;SDS011;33718;50.910;-1.514;2023-09-30T07:30:49;4.82;;;1.02;;
47958;SDS011;33718;50.910;-1.514;2023-09-30T07:32:53;3.45;;;0.90;;
47958;SDS011;33718;50.910;-1.514;2023-09-30T07:34:58;3.50;;;1.20;;
47958;SDS011;33718;50.910;-1.514;2023-09-30T07:37:02;7.15;;;1.27;;
47958;SDS011;33718;50.910;-1.514;2023-09-30T07:39:07;4.90;;;1.48;;
47958;SDS011;33718;50.910;-1.514;2023-09-30T07:41:09;6.30;;;1.30;;
47958;SDS011;33718;50.910;-1.514;2023-09-30T07:43:14;7.35;;;1.27;;
47958;SDS011;33718;50.910;-1.514;2023-09-30T07:45:34;5.53;;;1.45;;
47958;SDS011;33718;50.910;-1.514;2023-09-30T07:47:36;6.15;;;1.30;;
47958;SDS011;33718;50.910;-1.514;2023-09-30T07:49:41;4.45;;;1.65;;
47958;SDS011;33718;50.910;-1.514;2023-09-30T07:51:45;4.63;;;1.25;;
47958;SDS011;33718;50.910;-1.514;2023-09-30T07:53:49;7.00;;;1.63;;
47958;SDS011;33718;50.910;-1.514;2023-09-30T07:55:51;9.88;;;1.55;;
47958;SDS011;33718;50.910;-1.514;2023-09-30T07:57:58;5.45;;;1.60;;
47958;SDS011;33718;50.910;-1.514;2023-09-30T08:00:03;5.53;;;1.08;;
47958;SDS011;33718;50.910;-1.514;2023-09-30T08:02:10;11.48;;;1.52;;
47958;SDS011;33718;50.910;-1.514;2023-09-30T08:04:15;5.60;;;1.60;;
47958;SDS011;33718;50.910;-1.514;2023-09-30T08:06:19;5.38;;;1.98;;
47958;SDS011;33718;50.910;-1.514;2023-09-30T08:08:21;6.38;;;1.83;;
47958;SDS011;33718;50.910;-1.514;2023-09-30T08:10:23;8.50;;;1.35;;
47958;SDS011;33718;50.910;-1.514;2023-09-30T08:12:25;6.97;;;1.52;;
47958;SDS011;33718;50.910;-1.514;2023-09-30T08:14:32;8.20;;;2.00;;
47958;SDS011;33718;50.910;-1.514;2023-09-30T08:16:40;6.68;;;1.90;;
47958;SDS011;33718;50.910;-1.514;2023-09-30T08:18:41;8.40;;;2.08;;
47958;SDS011;33718;50.910;-1.514;2023-09-30T08:20:49;7.95;;;2.30;;
47958;SDS011;33718;50.910;-1.514;2023-09-30T08:22:50;6.15;;;1.60;;
47958;SDS011;33718;50.910;-1.514;2023-09-30T08:24:54;11.00;;;2.10;;
47958;SDS011;33718;50.910;-1.514;2023-09-30T08:26:56;15.85;;;2.80;;
47958;SDS011;33718;50.910;-1.514;2023-09-30T08:28:58;8.20;;;2.08;;
47958;SDS011;33718;50.910;-1.514;2023-09-30T08:31:03;13.43;;;3.63;;
47958;SDS011;33718;50.910;-1.514;2023-09-30T08:33:10;8.70;;;2.60;;
47958;SDS011;33718;50.910;-1.514;2023-09-30T08:35:12;10.80;;;2.28;;
47958;SDS011;33718;50.910;-1.514;2023-09-30T08:37:34;13.63;;;2.45;;
47958;SDS011;33718;50.910;-1.514;2023-09-30T08:39:41;9.15;;;3.33;;
47958;SDS011;33718;50.910;-1.514;2023-09-30T08:41:50;9.98;;;2.38;;
47958;SDS011;33718;50.910;-1.514;2023-09-30T08:43:52;7.40;;;1.85;;
47958;SDS011;33718;50.910;-1.514;2023-09-30T08:46:03;9.63;;;2.58;;
47958;SDS011;33718;50.910;-1.514;2023-09-30T08:48:12;8.02;;;2.50;;
47958;SDS011;33718;50.910;-1.514;2023-09-30T08:50:20;7.72;;;2.72;;
47958;SDS011;33718;50.910;-1.514;2023-09-30T08:52:27;8.68;;;2.70;;
47958;SDS011;33718;50.910;-1.514;2023-09-30T08:54:36;6.35;;;2.38;;
47958;SDS011;33718;50.910;-1.514;2023-09-30T08:56:37;10.07;;;2.92;;
47958;SDS011;33718;50.910;-1.514;2023-09-30T08:58:45;13.98;;;3.22;;
47958;SDS011;33718;50.910;-1.514;2023-09-30T09:00:46;10.90;;;2.63;;
47958;SDS011;33718;50.910;-1.514;2023-09-30T09:02:49;10.80;;;2.63;;
47958;SDS011;33718;50.910;-1.514;2023-09-30T09:04:54;11.35;;;2.38;;
47958;SDS011;33718;50.910;-1.514;2023-09-30T09:06:55;9.70;;;2.53;;
47958;SDS011;33718;50.910;-1.514;2023-09-30T09:09:12;13.23;;;2.42;;
47958;SDS011;33718;50.910;-1.514;2023-09-30T09:11:14;16.75;;;3.33;;
47958;SDS011;33718;50.910;-1.514;2023-09-30T09:13:18;8.90;;;2.17;;
47958;SDS011;33718;50.910;-1.514;2023-09-30T09:15:26;17.17;;;2.80;;
47958;SDS011;33718;50.910;-1.514;2023-09-30T09:17:42;7.50;;;2.03;;
47958;SDS011;33718;50.910;-1.514;2023-09-30T09:19:58;9.48;;;3.35;;
47958;SDS011;33718;50.910;-1.514;2023-09-30T09:22:19;8.75;;;2.42;;
47958;SDS011;33718;50.910;-1.514;2023-09-30T09:24:28;13.07;;;3.03;;
47958;SDS011;33718;50.910;-1.514;2023-09-30T09:26:32;15.63;;;2.28;;
47958;SDS011;33718;50.910;-1.514;2023-09-30T09:28:39;8.63;;;2.08;;
47958;SDS011;33718;50.910;-1.514;2023-09-30T09:30:41;15.13;;;4.00;;
47958;SDS011;33718;50.910;-1.514;2023-09-30T09:33:03;9.77;;;1.98;;
47958;SDS011;33718;50.910;-1.514;2023-09-30T09:35:25;12.63;;;2.28;;
47958;SDS011;33718;50.910;-1.514;2023-09-30T09:37:30;9.23;;;2.17;;
47958;SDS011;33718;50.910;-1.514;2023-09-30T09:39:36;9.02;;;2.13;;
47958;SDS011;33718;50.910;-1.514;2023-09-30T09:41:49;7.97;;;2.00;;
47958;SDS011;33718;50.910;-1.514;2023-09-30T09:44:09;13.02;;;2.40;;
47958;SDS011;33718;50.910;-1.514;2023-09-30T09:46:30;12.57;;;1.92;;
47958;SDS011;33718;50.910;-1.514;2023-09-30T09:48:37;7.15;;;1.75;;
47958;SDS011;33718;50.910;-1.514;2023-09-30T09:50:41;10.05;;;2.08;;
47958;SDS011;33718;50.910;-1.514;2023-09-30T09:53:02;10.10;;;2.10;;
47958;SDS011;33718;50.910;-1.514;2023-09-30T09:55:16;10.80;;;2.72;;
47958;SDS011;33718;50.910;-1.514;2023-09-30T09:57:32;8.23;;;2.40;;
47958;SDS011;33718;50.910;-1.514;2023-09-30T10:02:00;7.47;;;1.52;;
47958;SDS011;33718;50.910;-1.514;2023-09-30T10:04:17;8.63;;;1.83;;
47958;SDS011;33718;50.910;-1.514;2023-09-30T10:06:34;11.77;;;2.08;;
47958;SDS011;33718;50.910;-1.514;2023-09-30T10:08:51;10.50;;;2.60;;
47958;SDS011;33718;50.910;-1.514;2023-09-30T10:11:20;12.25;;;2.50;;
47958;SDS011;33718;50.910;-1.514;2023-09-30T10:16:07;8.23;;;1.45;;
47958;SDS011;33718;50.910;-1.514;2023-09-30T10:18:20;11.48;;;1.60;;
47958;SDS011;33718;50.910;-1.514;2023-09-30T10:20:37;9.43;;;1.95;;
47958;SDS011;33718;50.910;-1.514;2023-09-30T10:22:49;9.65;;;1.40;;
47958;SDS011;33718;50.910;-1.514;2023-09-30T10:25:33;9.73;;;2.10;;
47958;SDS011;33718;50.910;-1.514;2023-09-30T10:27:49;6.95;;;1.75;;
47958;SDS011;33718;50.910;-1.514;2023-09-30T10:32:09;11.50;;;1.65;;
47958;SDS011;33718;50.910;-1.514;2023-09-30T10:34:19;17.48;;;2.65;;
47958;SDS011;33718;50.910;-1.514;2023-09-30T10:40:43;11.45;;;1.38;;
47958;SDS011;33718;50.910;-1.514;2023-09-30T10:42:51;8.00;;;2.30;;
47958;SDS011;33718;50.910;-1.514;2023-09-30T10:44:56;15.85;;;2.25;;
47958;SDS011;33718;50.910;-1.514;2023-09-30T10:47:34;7.80;;;1.35;;
47958;SDS011;33718;50.910;-1.514;2023-09-30T10:49:31;9.40;;;2.20;;
47958;SDS011;33718;50.910;-1.514;2023-09-30T10:51:34;13.50;;;3.38;;
47958;SDS011;33718;50.910;-1.514;2023-09-30T10:54:00;11.52;;;2.25;;
47958;SDS011;33718;50.910;-1.514;2023-09-30T10:56:02;13.93;;;1.73;;
47958;SDS011;33718;50.910;-1.514;2023-09-30T10:58:06;12.38;;;1.67;;
47958;SDS011;33718;50.910;-1.514;2023-09-30T11:00:26;15.02;;;3.30;;
47958;SDS011;33718;50.910;-1.514;2023-09-30T11:02:31;10.95;;;1.55;;
47958;SDS011;33718;50.910;-1.514;2023-09-30T11:04:45;11.73;;;1.80;;
47958;SDS011;33718;50.910;-1.514;2023-09-30T11:06:50;8.98;;;1.65;;
47958;SDS011;33718;50.910;-1.514;2023-09-30T11:08:56;11.02;;;2.10;;
47958;SDS011;33718;50.910;-1.514;2023-09-30T11:11:18;10.18;;;1.50;;
47958;SDS011;33718;50.910;-1.514;2023-09-30T11:13:20;9.13;;;2.08;;
47958;SDS011;33718;50.910;-1.514;2023-09-30T11:15:24;10.27;;;2.70;;
47958;SDS011;33718;50.910;-1.514;2023-09-30T11:17:32;8.10;;;1.50;;
47958;SDS011;33718;50.910;-1.514;2023-09-30T11:19:41;12.43;;;1.98;;
47958;SDS011;33718;50.910;-1.514;2023-09-30T11:21:51;15.48;;;2.00;;
47958;SDS011;33718;50.910;-1.514;2023-09-30T11:23:53;7.45;;;2.35;;
47958;SDS011;33718;50.910;-1.514;2023-09-30T11:26:13;7.20;;;1.27;;
47958;SDS011;33718;50.910;-1.514;2023-09-30T11:28:35;10.95;;;1.35;;
47958;SDS011;33718;50.910;-1.514;2023-09-30T11:30:56;7.60;;;2.10;;
47958;SDS011;33718;50.910;-1.514;2023-09-30T11:32:58;9.65;;;1.40;;
47958;SDS011;33718;50.910;-1.514;2023-09-30T11:35:00;10.32;;;1.50;;
47958;SDS011;33718;50.910;-1.514;2023-09-30T11:37:02;10.63;;;1.27;;
47958;SDS011;33718;50.910;-1.514;2023-09-30T11:39:04;10.18;;;2.28;;
47958;SDS011;33718;50.910;-1.514;2023-09-30T11:41:12;16.63;;;2.97;;
47958;SDS011;33718;50.910;-1.514;2023-09-30T11:43:18;7.97;;;1.98;;
47958;SDS011;33718;50.910;-1.514;2023-09-30T11:45:22;11.77;;;1.60;;
47958;SDS011;33718;50.910;-1.514;2023-09-30T11:47:28;9.63;;;1.75;;
47958;SDS011;33718;50.910;-1.514;2023-09-30T11:49:37;7.63;;;1.50;;
47958;SDS011;33718;50.910;-1.514;2023-09-30T11:51:59;12.02;;;1.67;;
47958;SDS011;33718;50.910;-1.514;2023-09-30T11:54:04;8.00;;;1.45;;
47958;SDS011;33718;50.910;-1.514;2023-09-30T11:56:07;10.02;;;2.33;;
47958;SDS011;33718;50.910;-1.514;2023-09-30T12:00:19;10.15;;;1.92;;
47958;SDS011;33718;50.910;-1.514;2023-09-30T12:02:23;9.55;;;2.13;;
47958;SDS011;33718;50.910;-1.514;2023-09-30T12:04:28;8.63;;;1.23;;
47958;SDS011;33718;50.910;-1.514;2023-09-30T12:06:30;10.15;;;1.55;;
47958;SDS011;33718;50.910;-1.514;2023-09-30T12:08:35;11.43;;;1.98;;
47958;SDS011;33718;50.910;-1.514;2023-09-30T12:10:42;8.70;;;2.08;;
47958;SDS011;33718;50.910;-1.514;2023-09-30T12:12:49;11.20;;;1.40;;
47958;SDS011;33718;50.910;-1.514;2023-09-30T12:14:54;7.10;;;1.73;;
47958;SDS011;33718;50.910;-1.514;2023-09-30T12:17:15;7.07;;;1.38;;
47958;SDS011;33718;50.910;-1.514;2023-09-30T12:19:17;6.95;;;1.92;;
47958;SDS011;33718;50.910;-1.514;2023-09-30T12:21:25;11.27;;;1.25;;
47958;SDS011;33718;50.910;-1.514;2023-09-30T12:23:29;14.32;;;2.03;;
47958;SDS011;33718;50.910;-1.514;2023-09-30T12:25:37;6.10;;;1.35;;
47958;SDS011;33718;50.910;-1.514;2023-09-30T12:27:41;7.63;;;1.65;;
47958;SDS011;33718;50.910;-1.514;2023-09-30T12:29:46;9.82;;;2.10;;
47958;SDS011;33718;50.910;-1.514;2023-09-30T12:31:52;12.32;;;2.55;;
47958;SDS011;33718;50.910;-1.514;2023-09-30T12:33:56;12.65;;;2.13;;
47958;SDS011;33718;50.910;-1.514;2023-09-30T12:36:00;4.57;;;1.13;;
47958;SDS011;33718;50.910;-1.514;2023-09-30T12:38:05;8.90;;;1.50;;
47958;SDS011;33718;50.910;-1.514;2023-09-30T12:40:25;7.45;;;1.17;;
47958;SDS011;33718;50.910;-1.514;2023-09-30T12:42:45;11.75;;;1.75;;
47958;SDS011;33718;50.910;-1.514;2023-09-30T12:44:48;10.13;;;1.98;;
47958;SDS011;33718;50.910;-1.514;2023-09-30T12:46:50;8.90;;;1.50;;
47958;SDS011;33718;50.910;-1.514;2023-09-30T12:48:52;6.82;;;2.50;;
47958;SDS011;33718;50.910;-1.514;2023-09-30T12:50:57;11.35;;;1.92;;
47958;SDS011;33718;50.910;-1.514;2023-09-30T12:53:01;8.23;;;1.27;;
47958;SDS011;33718;50.910;-1.514;2023-09-30T12:55:06;5.25;;;1.10;;
47958;SDS011;33718;50.910;-1.514;2023-09-30T12:57:18;6.22;;;1.33;;
47958;SDS011;33718;50.910;-1.514;2023-09-30T12:59:32;8.77;;;1.15;;